Stations météo

réclame
Mon MeteoGroup
Mumbles, Grande-Bretagne (3609): Température de l'air & dewpoint: 18.02.2018 21:00:00 - 24.02.2018 21:00:00 (GMT)Mumbles, Grande-Bretagne (3609): Vitesse du vent & gusts: 18.02.2018 21:00:00 - 24.02.2018 21:00:00 (GMT)Mumbles, Grande-Bretagne (3609): Direction du vent: 18.02.2018 21:00:00 - 24.02.2018 21:00:00 (GMT)Mumbles, Grande-Bretagne (3609): reduced air pressure: 18.02.2018 21:00:00 - 24.02.2018 21:00:00 (GMT)Mumbles, Grande-Bretagne (3609): Quantités de précipitations: 18.02.2018 21:00:00 - 24.02.2018 21:00:00 (GMT)
Date & Time tt [°C] td [°C] ff [km/h] ff [knt] fx [km/h] fx [knt] dd ppp [hPa] rr [mm]
24.02.2018 21:00:00 4,1 -2,5 31 17 55 30 E 1022,3 0,0
24.02.2018 20:00:00 4,8 -3,4 28 15 - - ENE 1021,8 0,0
24.02.2018 19:00:00 4,6 -4,0 37 20 46 25 ENE 1021,2 0,0
24.02.2018 18:00:00 4,8 -3,1 34 18 - - E 1020,8 0,0
24.02.2018 17:00:00 5,3 -2,3 26 14 - - E 1020,6 0,0
24.02.2018 16:00:00 5,5 -0,8 35 19 - - E 1020,3 0,0
24.02.2018 15:00:00 6,1 -0,9 35 19 - - ESE 1020,4 0,0
24.02.2018 14:00:00 6,2 -1,2 29 16 - - E 1020,7 0,0
24.02.2018 13:00:00 5,6 -1,5 26 14 - - E 1020,8 0,0
24.02.2018 12:00:00 4,5 -2,5 29 16 48 26 E 1021,0 0,0
24.02.2018 11:00:00 3,8 -2,8 34 18 50 27 E 1021,2 0,0
24.02.2018 10:00:00 2,9 -2,6 35 19 54 29 E 1021,2 0,0
24.02.2018 09:00:00 2,3 -3,0 35 19 52 28 E 1021,2 0,0
24.02.2018 08:00:00 1,4 -3,5 35 19 48 26 ENE 1021,2 0,0
24.02.2018 07:00:00 1,2 -3,2 29 16 - - ENE 1020,4 0,0
24.02.2018 06:00:00 1,4 -2,8 31 17 46 25 E 1019,7 0,0
24.02.2018 05:00:00 1,5 -2,8 35 19 52 28 E 1019,1 0,0
24.02.2018 04:00:00 1,4 -2,5 31 17 46 25 E 1019,0 0,0
24.02.2018 03:00:00 1,6 -2,1 29 16 50 27 E 1019,2 0,0
24.02.2018 02:00:00 1,9 -2,0 37 20 57 31 E 1019,5 0,0
24.02.2018 01:00:00 1,6 -2,1 31 17 50 27 E 1019,3 0,0
24.02.2018 00:00:00 1,4 -2,0 35 19 52 28 E 1019,3 0,0
23.02.2018 23:00:00 1,9 -1,9 34 18 55 30 E 1018,9 0,0
23.02.2018 22:00:00 2,3 -1,7 34 18 52 28 E 1018,6 0,0
23.02.2018 21:00:00 2,7 -1,7 34 18 52 28 E 1018,3 0,0
23.02.2018 20:00:00 3,2 -1,4 29 16 48 26 E 1018,3 0,0
23.02.2018 19:00:00 3,8 -1,3 29 16 - - E 1018,3 0,0
23.02.2018 18:00:00 4,2 -1,0 29 16 48 26 E 1018,0 0,0
23.02.2018 17:00:00 4,5 -1,0 35 19 48 26 E 1018,0 0,0
23.02.2018 16:00:00 4,3 -0,9 35 19 50 27 E 1018,5 0,0
23.02.2018 15:00:00 4,3 -1,2 35 19 52 28 E 1018,8 0,0
23.02.2018 14:00:00 4,2 -1,8 37 20 50 27 E 1019,4 0,0
23.02.2018 13:00:00 4,5 -1,3 39 21 55 30 E 1020,2 0,0
23.02.2018 12:00:00 4,0 -1,8 46 25 59 32 E 1020,6 0,0
23.02.2018 11:00:00 3,5 -1,8 41 22 59 32 E 1021,3 0,0
23.02.2018 10:00:00 3,5 -1,6 41 22 55 30 E 1021,5 0,0
23.02.2018 09:00:00 2,2 -1,0 28 15 46 25 E 1021,7 0,0
23.02.2018 08:00:00 2,0 -0,5 29 16 46 25 E 1021,4 0,0
23.02.2018 07:00:00 1,8 -0,6 28 15 50 27 E 1021,3 0,0
23.02.2018 06:00:00 2,1 -1,0 34 18 48 26 E 1021,1 0,0
23.02.2018 05:00:00 2,4 -0,9 29 16 - - E 1021,4 0,0
23.02.2018 04:00:00 2,4 -0,9 29 16 - - E 1021,3 0,0
23.02.2018 03:00:00 2,5 -1,0 28 15 - - E 1021,7 0,0
23.02.2018 02:00:00 2,6 -1,6 28 15 - - E 1022,4 0,0
23.02.2018 01:00:00 2,1 -1,8 28 15 - - E 1022,8 0,0
23.02.2018 00:00:00 2,6 -1,8 28 15 - - E 1022,7 0,0
22.02.2018 23:00:00 3,1 -1,5 28 15 - - E 1022,5 0,0
22.02.2018 22:00:00 3,0 -0,8 22 12 - - ENE 1022,8 0,0
22.02.2018 21:00:00 2,8 -1,4 22 12 - - ENE 1023,0 0,0
22.02.2018 20:00:00 2,7 -1,6 24 13 - - ENE 1023,1 0,0
22.02.2018 19:00:00 3,1 -1,5 24 13 - - E 1023,3 0,0
22.02.2018 18:00:00 3,1 -1,7 31 17 - - E 1023,0 0,0
22.02.2018 17:00:00 3,8 -1,4 28 15 - - E 1022,7 0,0
22.02.2018 16:00:00 4,8 -1,0 22 12 - - E 1022,8 0,0
22.02.2018 15:00:00 5,5 -0,3 26 14 - - SE 1023,0 0,0
22.02.2018 14:00:00 4,8 0,8 21 11 - - SE 1023,6 0,0
22.02.2018 13:00:00 5,4 1,4 24 13 - - E 1024,2 0,0
22.02.2018 12:00:00 5,1 1,7 24 13 - - E 1024,5 0,0
22.02.2018 11:00:00 4,7 1,4 22 12 - - E 1024,9 0,0
22.02.2018 10:00:00 5,0 0,8 24 13 - - E 1025,0 0,0
22.02.2018 09:00:00 5,0 0,3 22 12 - - ENE 1024,7 0,0
22.02.2018 08:00:00 4,0 -0,3 18 10 - - ENE 1024,7 0,0
22.02.2018 07:00:00 3,9 0,3 18 10 - - E 1024,7 0,0
22.02.2018 06:00:00 3,8 0,7 18 10 - - E 1024,7 0,0
22.02.2018 05:00:00 4,4 1,2 16 9 - - E 1024,8 0,0
22.02.2018 04:00:00 3,9 2,1 15 8 - - NE 1024,9 0,0
22.02.2018 03:00:00 3,4 1,5 13 7 - - N 1025,2 0,0
22.02.2018 02:00:00 4,0 1,9 15 8 - - NNE 1025,6 0,0
22.02.2018 01:00:00 4,4 2,1 13 7 - - NE 1026,1 0,0
22.02.2018 00:00:00 4,1 1,9 18 10 - - NE 1026,3 0,0
21.02.2018 23:00:00 4,5 1,8 15 8 - - NE 1026,4 0,0
21.02.2018 22:00:00 4,2 1,4 18 10 - - NE 1026,9 0,0
21.02.2018 21:00:00 4,8 1,8 18 10 - - NE 1027,0 0,0
21.02.2018 20:00:00 5,6 3,1 9 5 - - NNE 1027,1 0,0
21.02.2018 19:00:00 6,1 2,9 9 5 - - ENE 1027,0 0,0
21.02.2018 18:00:00 6,4 3,4 4 2 - - NNW 1026,8 0,0
21.02.2018 17:00:00 7,3 3,7 4 2 - - WSW 1026,9 0,0
21.02.2018 16:00:00 7,5 2,8 5 3 - - S 1027,0 0,0
21.02.2018 15:00:00 7,3 3,6 9 5 - - S 1027,3 0,0
21.02.2018 14:00:00 7,4 3,8 8 4 - - SSE 1027,9 0,0
21.02.2018 13:00:00 7,2 4,4 9 5 - - SE 1028,5 0,0
21.02.2018 12:00:00 6,5 4,3 11 6 - - SSE 1028,9 0,0
21.02.2018 11:00:00 7,4 3,6 8 4 - - E 1028,9 0,0
21.02.2018 10:00:00 6,8 2,9 13 7 - - NE 1028,8 0,0
21.02.2018 09:00:00 6,2 3,1 11 6 - - NNE 1028,8 0,0
21.02.2018 08:00:00 5,4 2,9 13 7 - - ENE 1028,6 0,0
21.02.2018 07:00:00 5,2 2,3 13 7 - - NE 1028,3 0,0
21.02.2018 06:00:00 5,6 2,2 21 11 - - NNE 1028,0 0,0
21.02.2018 05:00:00 4,5 1,3 22 12 - - NNW 1028,1 0,0
21.02.2018 04:00:00 4,0 1,4 18 10 - - NNW 1028,2 0,0
21.02.2018 03:00:00 4,2 1,7 21 11 - - NNW 1028,3 0,0
21.02.2018 02:00:00 4,8 1,8 15 8 - - NW 1028,4 0,0
21.02.2018 01:00:00 4,2 1,6 11 6 - - WNW 1028,6 0,0
21.02.2018 00:00:00 4,9 1,8 5 3 - - WNW 1028,6 0,0
20.02.2018 23:00:00 5,5 2,1 8 4 - - NNW 1028,4 0,0
20.02.2018 22:00:00 6,1 2,2 18 10 - - N 1028,3 0,0
20.02.2018 21:00:00 6,6 2,9 21 11 - - N 1027,9 0,0
20.02.2018 20:00:00 6,5 4,0 15 8 - - NNW 1028,3 0,0
20.02.2018 19:00:00 6,8 3,9 15 8 - - NW 1027,5 0,0
20.02.2018 18:00:00 7,4 3,7 22 12 - - NW 1027,1 0,0
20.02.2018 17:00:00 8,4 3,3 16 9 - - NW 1026,7 0,0
20.02.2018 16:00:00 9,2 2,6 15 8 - - NNW 1026,3 0,0
20.02.2018 15:00:00 9,7 2,4 21 11 - - NW 1025,9 0,0
20.02.2018 14:00:00 9,8 1,9 16 9 - - NNW 1026,0 0,0
20.02.2018 13:00:00 9,8 2,4 11 6 - - N 1026,3 0,0
20.02.2018 12:00:00 8,7 2,3 18 10 - - NNE 1026,1 0,0
20.02.2018 11:00:00 8,2 2,8 21 11 - - N 1026,7 0,0
20.02.2018 10:00:00 7,8 3,5 26 14 46 25 NNW 1026,2 0,0
20.02.2018 09:00:00 7,7 4,0 21 11 - - NNW 1025,8 0,0
20.02.2018 08:00:00 7,0 4,3 24 13 - - NNW 1025,1 0,0
20.02.2018 07:00:00 6,7 3,8 22 12 - - NNW 1024,1 0,0
20.02.2018 06:00:00 7,1 3,7 11 6 - - N 1023,6 0,0
20.02.2018 05:00:00 7,5 4,5 24 13 46 25 NNW 1022,7 0,0
20.02.2018 04:00:00 7,9 5,3 22 12 50 27 NNW 1022,1 0,0
20.02.2018 03:00:00 8,1 5,7 31 17 54 29 NNW 1021,9 0,0
20.02.2018 02:00:00 9,0 7,8 11 6 - - NNW 1021,7 0,0
20.02.2018 01:00:00 8,7 7,8 11 6 - - WNW 1022,2 0,0
20.02.2018 00:00:00 8,3 7,4 11 6 - - WNW 1021,9 0,0
19.02.2018 23:00:00 8,4 7,5 11 6 - - W 1021,4 0,0
19.02.2018 22:00:00 8,9 7,7 5 3 - - W 1021,1 0,0
19.02.2018 21:00:00 9,8 8,3 11 6 - - WNW 1021,2 0,0
19.02.2018 20:00:00 9,9 8,5 9 5 - - WNW 1020,8 0,0
19.02.2018 19:00:00 10,2 8,5 9 5 - - WNW 1020,5 0,0
19.02.2018 18:00:00 10,6 8,6 13 7 - - WNW 1020,4 0,0
19.02.2018 17:00:00 11,4 8,9 13 7 - - WNW 1019,9 0,0
19.02.2018 16:00:00 11,4 9,4 16 9 - - WNW 1019,7 0,0
19.02.2018 15:00:00 12,4 10,0 13 7 - - NW 1019,6 0,2
19.02.2018 14:00:00 10,4 9,0 11 6 - - W 1019,7 0,0
19.02.2018 13:00:00 11,4 10,3 11 6 - - NNW 1019,9 0,0
19.02.2018 12:00:00 11,1 10,8 5 3 - - NW 1020,0 0,0
19.02.2018 11:00:00 10,4 10,4 11 6 - - NW 1019,8 0,0
19.02.2018 10:00:00 8,1 8,1 9 5 - - WSW 1019,8 0,0
19.02.2018 09:00:00 8,7 8,7 9 5 - - WNW 1019,6 0,0
19.02.2018 08:00:00 7,9 7,9 5 3 - - SSW 1019,4 0,0
19.02.2018 07:00:00 7,8 7,8 4 2 - - SSW 1019,3 0,0
19.02.2018 06:00:00 8,1 8,1 5 3 - - WNW 1018,8 0,0
19.02.2018 05:00:00 7,0 7,0 4 2 - - WSW 1018,7 0,0
19.02.2018 04:00:00 7,1 7,1 0 0 - - N 1019,0 0,0
19.02.2018 03:00:00 7,4 7,4 2 1 - - NNE 1019,2 0,0
19.02.2018 02:00:00 7,3 7,3 2 1 - - NW 1019,4 0,2
19.02.2018 01:00:00 7,2 7,2 5 3 - - N 1019,8 0,0
19.02.2018 00:00:00 7,0 7,0 2 1 - - SE 1019,9 0,4
18.02.2018 23:00:00 7,6 7,6 4 2 - - WNW 1020,2 0,4
18.02.2018 22:00:00 7,3 7,2 4 2 - - WSW 1020,2 0,2
18.02.2018 21:00:00 7,1 7,0 4 2 - - SW 1020,4 0,4

tt = Température de l'air
td = dewpoint
ff = Vitesse du vent
fx = gusts
dd = Direction du vent
ppp = reduced air pressure
rr = Quantités de précipitations

stations d'obs. à proximité